sensor_id;sensor_type;location;lat;lon;timestamp;pressure;altitude;pressure_sealevel;temperature;humidity
31595;BME280;18200;48.726;8.892;2022-11-20T00:02:34;96218.97;;;17.28;40.23
31595;BME280;18200;48.726;8.892;2022-11-20T00:06:34;96220.66;;;16.95;40.39
31595;BME280;18200;48.726;8.892;2022-11-20T00:10:39;96218.22;;;17.00;40.96
31595;BME280;18200;48.726;8.892;2022-11-20T00:14:40;96222.00;;;17.06;40.47
31595;BME280;18200;48.726;8.892;2022-11-20T00:18:41;96218.16;;;17.04;40.86
31595;BME280;18200;48.726;8.892;2022-11-20T00:22:42;96218.94;;;16.44;41.63
31595;BME280;18200;48.726;8.892;2022-11-20T00:26:42;96223.06;;;15.88;42.41
31595;BME280;18200;48.726;8.892;2022-11-20T00:30:46;96229.53;;;16.65;40.34
31595;BME280;18200;48.726;8.892;2022-11-20T00:34:46;96225.59;;;16.73;40.68
31595;BME280;18200;48.726;8.892;2022-11-20T00:38:51;96232.81;;;16.53;40.99
31595;BME280;18200;48.726;8.892;2022-11-20T00:42:51;96224.75;;;16.76;40.89
31595;BME280;18200;48.726;8.892;2022-11-20T00:46:52;96226.59;;;15.82;42.39
31595;BME280;18200;48.726;8.892;2022-11-20T00:50:53;96223.22;;;16.08;41.39
31595;BME280;18200;48.726;8.892;2022-11-20T00:54:53;96227.78;;;16.82;41.28
31595;BME280;18200;48.726;8.892;2022-11-20T00:58:54;96231.22;;;17.13;40.88
31595;BME280;18200;48.726;8.892;2022-11-20T01:02:55;96230.38;;;16.92;40.83
31595;BME280;18200;48.726;8.892;2022-11-20T01:06:56;96237.16;;;17.04;40.63
31595;BME280;18200;48.726;8.892;2022-11-20T01:11:04;96238.44;;;16.96;40.73
31595;BME280;18200;48.726;8.892;2022-11-20T01:15:05;96232.97;;;16.99;40.57
31595;BME280;18200;48.726;8.892;2022-11-20T01:19:07;96236.78;;;16.75;40.76
31595;BME280;18200;48.726;8.892;2022-11-20T01:23:09;96240.13;;;15.82;41.92
31595;BME280;18200;48.726;8.892;2022-11-20T01:27:09;96237.66;;;16.35;40.93
31595;BME280;18200;48.726;8.892;2022-11-20T01:31:19;96239.47;;;16.45;40.90
31595;BME280;18200;48.726;8.892;2022-11-20T01:35:20;96237.44;;;16.19;40.74
31595;BME280;18200;48.726;8.892;2022-11-20T01:39:23;96234.66;;;15.44;42.38
31595;BME280;18200;48.726;8.892;2022-11-20T01:43:25;96238.19;;;15.34;41.38
31595;BME280;18200;48.726;8.892;2022-11-20T01:47:35;96235.59;;;15.20;42.86
31595;BME280;18200;48.726;8.892;2022-11-20T01:51:45;96228.06;;;14.87;43.83
31595;BME280;18200;48.726;8.892;2022-11-20T01:55:50;96237.06;;;15.28;42.22
31595;BME280;18200;48.726;8.892;2022-11-20T01:59:59;96227.06;;;15.70;42.71
31595;BME280;18200;48.726;8.892;2022-11-20T02:04:02;96223.09;;;16.18;40.98
31595;BME280;18200;48.726;8.892;2022-11-20T02:08:03;96228.38;;;16.33;40.68
31595;BME280;18200;48.726;8.892;2022-11-20T02:12:05;96228.06;;;15.90;40.30
31595;BME280;18200;48.726;8.892;2022-11-20T02:16:29;96214.47;;;15.52;42.12
31595;BME280;18200;48.726;8.892;2022-11-20T02:20:30;96215.66;;;15.51;41.50
31595;BME280;18200;48.726;8.892;2022-11-20T02:24:34;96221.88;;;15.89;41.25
31595;BME280;18200;48.726;8.892;2022-11-20T02:28:34;96208.00;;;15.84;40.75
31595;BME280;18200;48.726;8.892;2022-11-20T02:32:35;96218.94;;;15.70;41.58
31595;BME280;18200;48.726;8.892;2022-11-20T02:36:38;96231.06;;;15.99;41.27
31595;BME280;18200;48.726;8.892;2022-11-20T02:40:40;96242.75;;;15.89;40.92
31595;BME280;18200;48.726;8.892;2022-11-20T02:44:40;96239.50;;;15.12;42.69
31595;BME280;18200;48.726;8.892;2022-11-20T02:48:41;96243.22;;;15.84;41.20
31595;BME280;18200;48.726;8.892;2022-11-20T02:52:41;96239.66;;;15.90;40.71
31595;BME280;18200;48.726;8.892;2022-11-20T02:56:42;96234.72;;;16.19;40.76
31595;BME280;18200;48.726;8.892;2022-11-20T03:00:43;96240.00;;;15.96;40.85
31595;BME280;18200;48.726;8.892;2022-11-20T03:04:43;96243.09;;;15.53;41.88
31595;BME280;18200;48.726;8.892;2022-11-20T03:08:44;96247.00;;;14.87;43.10
31595;BME280;18200;48.726;8.892;2022-11-20T03:12:44;96247.22;;;15.69;42.21
31595;BME280;18200;48.726;8.892;2022-11-20T03:16:45;96248.75;;;15.70;40.90
31595;BME280;18200;48.726;8.892;2022-11-20T03:20:45;96239.78;;;14.63;42.86
31595;BME280;18200;48.726;8.892;2022-11-20T03:24:46;96233.59;;;14.66;43.95
31595;BME280;18200;48.726;8.892;2022-11-20T03:28:52;96225.16;;;15.70;41.75
31595;BME280;18200;48.726;8.892;2022-11-20T03:32:53;96223.53;;;15.76;41.43
31595;BME280;18200;48.726;8.892;2022-11-20T03:36:54;96238.41;;;14.99;42.44
31595;BME280;18200;48.726;8.892;2022-11-20T03:40:58;96239.59;;;14.98;42.18
31595;BME280;18200;48.726;8.892;2022-11-20T03:44:59;96232.69;;;14.87;42.95
31595;BME280;18200;48.726;8.892;2022-11-20T03:48:59;96229.53;;;15.02;42.83
31595;BME280;18200;48.726;8.892;2022-11-20T03:53:00;96222.16;;;14.27;44.11
31595;BME280;18200;48.726;8.892;2022-11-20T03:57:00;96225.63;;;14.24;44.05
31595;BME280;18200;48.726;8.892;2022-11-20T04:01:07;96226.91;;;13.03;47.09
31595;BME280;18200;48.726;8.892;2022-11-20T04:05:08;96230.59;;;14.50;44.14
31595;BME280;18200;48.726;8.892;2022-11-20T04:09:09;96228.66;;;15.12;43.22
31595;BME280;18200;48.726;8.892;2022-11-20T04:13:09;96214.47;;;15.52;42.48
31595;BME280;18200;48.726;8.892;2022-11-20T04:17:10;96227.88;;;15.15;42.56
31595;BME280;18200;48.726;8.892;2022-11-20T04:21:11;96221.22;;;15.30;42.54
31595;BME280;18200;48.726;8.892;2022-11-20T04:25:11;96212.56;;;15.49;42.42
31595;BME280;18200;48.726;8.892;2022-11-20T04:29:12;96213.59;;;15.66;41.78
31595;BME280;18200;48.726;8.892;2022-11-20T04:33:12;96212.69;;;15.80;41.96
31595;BME280;18200;48.726;8.892;2022-11-20T04:37:13;96211.34;;;15.58;41.62
31595;BME280;18200;48.726;8.892;2022-11-20T04:41:18;96211.63;;;16.07;41.71
31595;BME280;18200;48.726;8.892;2022-11-20T04:45:19;96220.19;;;16.02;41.19
31595;BME280;18200;48.726;8.892;2022-11-20T04:53:29;96212.47;;;16.35;40.81
31595;BME280;18200;48.726;8.892;2022-11-20T04:57:29;96208.63;;;16.32;40.63
31595;BME280;18200;48.726;8.892;2022-11-20T05:01:30;96212.91;;;16.63;40.33
31595;BME280;18200;48.726;8.892;2022-11-20T05:05:30;96202.47;;;16.62;40.08
31595;BME280;18200;48.726;8.892;2022-11-20T05:09:30;96208.06;;;16.48;40.64
31595;BME280;18200;48.726;8.892;2022-11-20T05:13:31;96208.88;;;16.45;40.73
31595;BME280;18200;48.726;8.892;2022-11-20T05:17:32;96199.16;;;16.47;40.78
31595;BME280;18200;48.726;8.892;2022-11-20T05:21:32;96205.47;;;16.37;40.79
31595;BME280;18200;48.726;8.892;2022-11-20T05:25:32;96200.97;;;16.23;41.32
31595;BME280;18200;48.726;8.892;2022-11-20T05:29:33;96201.47;;;16.15;41.32
31595;BME280;18200;48.726;8.892;2022-11-20T05:33:34;96198.09;;;16.38;40.69
31595;BME280;18200;48.726;8.892;2022-11-20T05:37:35;96201.16;;;16.73;40.27
31595;BME280;18200;48.726;8.892;2022-11-20T05:41:35;96203.88;;;16.73;41.01
31595;BME280;18200;48.726;8.892;2022-11-20T05:45:36;96206.13;;;16.78;40.72
31595;BME280;18200;48.726;8.892;2022-11-20T05:49:36;96195.81;;;16.96;40.81
31595;BME280;18200;48.726;8.892;2022-11-20T05:53:37;96199.81;;;16.88;41.12
31595;BME280;18200;48.726;8.892;2022-11-20T05:57:37;96200.28;;;17.06;40.44
31595;BME280;18200;48.726;8.892;2022-11-20T06:01:38;96201.63;;;17.22;39.82
31595;BME280;18200;48.726;8.892;2022-11-20T06:05:38;96192.94;;;17.30;40.20
31595;BME280;18200;48.726;8.892;2022-11-20T06:09:38;96196.44;;;17.31;40.41
31595;BME280;18200;48.726;8.892;2022-11-20T06:13:39;96199.69;;;16.95;41.09
31595;BME280;18200;48.726;8.892;2022-11-20T06:17:40;96193.19;;;17.16;40.72
31595;BME280;18200;48.726;8.892;2022-11-20T06:21:40;96187.53;;;17.30;40.64
31595;BME280;18200;48.726;8.892;2022-11-20T06:25:41;96191.91;;;16.97;40.62
31595;BME280;18200;48.726;8.892;2022-11-20T06:29:42;96178.41;;;17.17;40.49
31595;BME280;18200;48.726;8.892;2022-11-20T06:33:43;96182.97;;;17.24;40.37
31595;BME280;18200;48.726;8.892;2022-11-20T06:37:44;96188.00;;;17.48;39.80
31595;BME280;18200;48.726;8.892;2022-11-20T06:41:44;96188.69;;;17.56;39.90
31595;BME280;18200;48.726;8.892;2022-11-20T06:45:44;96191.41;;;17.56;39.71
31595;BME280;18200;48.726;8.892;2022-11-20T06:49:45;96196.47;;;17.77;39.00
31595;BME280;18200;48.726;8.892;2022-11-20T06:53:45;96205.44;;;17.74;39.41
31595;BME280;18200;48.726;8.892;2022-11-20T06:57:47;96210.72;;;17.35;40.63
31595;BME280;18200;48.726;8.892;2022-11-20T07:01:47;96205.19;;;17.88;38.87
31595;BME280;18200;48.726;8.892;2022-11-20T07:05:47;96207.41;;;17.47;39.89
31595;BME280;18200;48.726;8.892;2022-11-20T07:09:48;96213.19;;;17.75;39.44
31595;BME280;18200;48.726;8.892;2022-11-20T07:13:48;96206.38;;;17.64;39.54
31595;BME280;18200;48.726;8.892;2022-11-20T07:17:49;96205.81;;;17.96;38.98
31595;BME280;18200;48.726;8.892;2022-11-20T07:21:49;96207.91;;;17.42;40.33
31595;BME280;18200;48.726;8.892;2022-11-20T07:25:50;96215.00;;;17.82;39.53
31595;BME280;18200;48.726;8.892;2022-11-20T07:29:50;96215.34;;;18.07;38.68
31595;BME280;18200;48.726;8.892;2022-11-20T07:33:50;96210.50;;;17.95;39.04
31595;BME280;18200;48.726;8.892;2022-11-20T07:37:51;96215.97;;;18.34;38.26
31595;BME280;18200;48.726;8.892;2022-11-20T07:41:51;96215.88;;;17.99;39.19
31595;BME280;18200;48.726;8.892;2022-11-20T07:45:52;96223.66;;;18.39;38.36
31595;BME280;18200;48.726;8.892;2022-11-20T07:49:54;96224.94;;;17.69;40.51
31595;BME280;18200;48.726;8.892;2022-11-20T07:53:55;96226.44;;;18.16;38.99
31595;BME280;18200;48.726;8.892;2022-11-20T07:57:56;96242.13;;;16.49;41.99
31595;BME280;18200;48.726;8.892;2022-11-20T08:01:57;96245.91;;;16.58;42.17
31595;BME280;18200;48.726;8.892;2022-11-20T08:06:01;96251.16;;;16.72;42.52
31595;BME280;18200;48.726;8.892;2022-11-20T08:10:01;96248.09;;;16.70;42.02
31595;BME280;18200;48.726;8.892;2022-11-20T08:14:02;96246.59;;;15.95;43.78
31595;BME280;18200;48.726;8.892;2022-11-20T08:18:12;96248.84;;;17.28;41.53
31595;BME280;18200;48.726;8.892;2022-11-20T08:22:12;96251.03;;;17.86;40.07
31595;BME280;18200;48.726;8.892;2022-11-20T08:26:12;96256.00;;;18.14;39.67
31595;BME280;18200;48.726;8.892;2022-11-20T08:30:13;96254.34;;;17.74;40.38
31595;BME280;18200;48.726;8.892;2022-11-20T08:34:13;96248.72;;;18.27;38.87
31595;BME280;18200;48.726;8.892;2022-11-20T08:38:17;96267.91;;;17.51;40.87
31595;BME280;18200;48.726;8.892;2022-11-20T08:42:21;96270.84;;;16.80;42.29
31595;BME280;18200;48.726;8.892;2022-11-20T08:46:23;96267.34;;;17.86;40.15
31595;BME280;18200;48.726;8.892;2022-11-20T08:50:23;96277.25;;;17.50;40.90
31595;BME280;18200;48.726;8.892;2022-11-20T08:54:23;96282.91;;;16.38;42.07
31595;BME280;18200;48.726;8.892;2022-11-20T08:58:25;96270.72;;;18.36;39.77
31595;BME280;18200;48.726;8.892;2022-11-20T09:02:25;96277.13;;;17.57;40.60
31595;BME280;18200;48.726;8.892;2022-11-20T09:06:26;96286.53;;;17.52;40.86
31595;BME280;18200;48.726;8.892;2022-11-20T09:10:27;96288.13;;;17.96;40.26
31595;BME280;18200;48.726;8.892;2022-11-20T09:14:27;96282.94;;;17.59;40.85
31595;BME280;18200;48.726;8.892;2022-11-20T09:18:30;96286.44;;;17.02;42.23
31595;BME280;18200;48.726;8.892;2022-11-20T09:22:33;96290.03;;;17.23;41.70
31595;BME280;18200;48.726;8.892;2022-11-20T09:26:34;96292.91;;;16.82;42.70
31595;BME280;18200;48.726;8.892;2022-11-20T09:30:34;96302.78;;;17.26;42.14
31595;BME280;18200;48.726;8.892;2022-11-20T09:34:35;96302.44;;;18.00;40.15
31595;BME280;18200;48.726;8.892;2022-11-20T09:38:35;96289.44;;;18.11;40.04
31595;BME280;18200;48.726;8.892;2022-11-20T09:43:11;96295.78;;;17.55;41.14
31595;BME280;18200;48.726;8.892;2022-11-20T09:52:10;96306.78;;;18.17;40.16
31595;BME280;18200;48.726;8.892;2022-11-20T09:56:19;96300.00;;;18.72;39.08
31595;BME280;18200;48.726;8.892;2022-11-20T10:00:20;96300.69;;;18.76;39.17
31595;BME280;18200;48.726;8.892;2022-11-20T10:04:22;96311.53;;;17.90;40.68
31595;BME280;18200;48.726;8.892;2022-11-20T10:08:25;96314.00;;;17.81;41.39
31595;BME280;18200;48.726;8.892;2022-11-20T10:12:43;96308.81;;;17.90;41.54
31595;BME280;18200;48.726;8.892;2022-11-20T10:17:18;96316.44;;;17.75;41.83
31595;BME280;18200;48.726;8.892;2022-11-20T10:21:41;96301.94;;;18.51;39.90
31595;BME280;18200;48.726;8.892;2022-11-20T10:26:02;96306.13;;;17.37;42.47
31595;BME280;18200;48.726;8.892;2022-11-20T10:30:14;96314.56;;;16.11;45.14
31595;BME280;18200;48.726;8.892;2022-11-20T10:34:26;96310.06;;;17.05;43.62
31595;BME280;18200;48.726;8.892;2022-11-20T10:38:39;96309.59;;;16.43;45.32
31595;BME280;18200;48.726;8.892;2022-11-20T10:42:46;96301.72;;;17.96;41.65
31595;BME280;18200;48.726;8.892;2022-11-20T10:46:47;96301.91;;;17.32;43.34
31595;BME280;18200;48.726;8.892;2022-11-20T10:59:52;96295.31;;;18.29;40.84
31595;BME280;18200;48.726;8.892;2022-11-20T11:03:56;96292.63;;;17.83;41.03
31595;BME280;18200;48.726;8.892;2022-11-20T11:07:58;96304.41;;;17.50;42.11
31595;BME280;18200;48.726;8.892;2022-11-20T11:11:59;96295.50;;;17.19;41.99
31595;BME280;18200;48.726;8.892;2022-11-20T11:15:59;96273.00;;;17.72;41.49
31595;BME280;18200;48.726;8.892;2022-11-20T11:20:04;96266.84;;;17.18;41.95
31595;BME280;18200;48.726;8.892;2022-11-20T11:24:05;96254.56;;;17.06;41.63
31595;BME280;18200;48.726;8.892;2022-11-20T11:32:20;96247.09;;;17.91;40.50
31595;BME280;18200;48.726;8.892;2022-11-20T11:36:22;96243.00;;;17.02;41.52
31595;BME280;18200;48.726;8.892;2022-11-20T11:40:25;96244.72;;;17.43;41.33
31595;BME280;18200;48.726;8.892;2022-11-20T11:44:36;96230.59;;;17.01;41.37
31595;BME280;18200;48.726;8.892;2022-11-20T11:49:00;96227.69;;;17.16;40.50
31595;BME280;18200;48.726;8.892;2022-11-20T11:53:09;96223.59;;;18.00;38.92
31595;BME280;18200;48.726;8.892;2022-11-20T12:01:49;96209.66;;;17.98;38.84
31595;BME280;18200;48.726;8.892;2022-11-20T12:06:06;96215.69;;;18.09;37.27
31595;BME280;18200;48.726;8.892;2022-11-20T12:10:22;96214.88;;;17.89;37.95
31595;BME280;18200;48.726;8.892;2022-11-20T12:14:40;96214.84;;;18.91;35.68
31595;BME280;18200;48.726;8.892;2022-11-20T12:18:42;96209.66;;;17.29;37.98
31595;BME280;18200;48.726;8.892;2022-11-20T12:22:55;96211.91;;;18.03;37.33
31595;BME280;18200;48.726;8.892;2022-11-20T12:31:31;96206.28;;;17.71;37.36
31595;BME280;18200;48.726;8.892;2022-11-20T12:36:03;96200.63;;;18.24;36.35
31595;BME280;18200;48.726;8.892;2022-11-20T12:40:41;96197.94;;;18.44;35.85
31595;BME280;18200;48.726;8.892;2022-11-20T12:45:01;96212.16;;;17.43;36.68
31595;BME280;18200;48.726;8.892;2022-11-20T12:49:16;96213.13;;;17.79;36.56
31595;BME280;18200;48.726;8.892;2022-11-20T13:01:51;96215.31;;;17.38;37.43
31595;BME280;18200;48.726;8.892;2022-11-20T13:06:05;96211.72;;;17.21;37.40
31595;BME280;18200;48.726;8.892;2022-11-20T13:14:52;96212.84;;;17.47;36.66
31595;BME280;18200;48.726;8.892;2022-11-20T13:18:54;96209.06;;;17.41;37.36
31595;BME280;18200;48.726;8.892;2022-11-20T13:22:55;96208.75;;;17.62;36.86
31595;BME280;18200;48.726;8.892;2022-11-20T13:31:33;96214.78;;;15.10;43.81
31595;BME280;18200;48.726;8.892;2022-11-20T13:35:41;96205.13;;;15.61;43.92
31595;BME280;18200;48.726;8.892;2022-11-20T13:39:42;96197.81;;;16.92;41.61
31595;BME280;18200;48.726;8.892;2022-11-20T13:47:55;96179.09;;;18.89;37.86
31595;BME280;18200;48.726;8.892;2022-11-20T13:52:46;96181.63;;;18.80;38.11
31595;BME280;18200;48.726;8.892;2022-11-20T13:57:21;96162.97;;;20.20;35.98
31595;BME280;18200;48.726;8.892;2022-11-20T14:01:29;96165.63;;;19.94;36.07
31595;BME280;18200;48.726;8.892;2022-11-20T15:10:07;96098.19;;;19.21;35.96
31595;BME280;18200;48.726;8.892;2022-11-20T15:30:00;96082.94;;;19.40;36.31
31595;BME280;18200;48.726;8.892;2022-11-20T15:34:16;96079.06;;;19.25;36.37
31595;BME280;18200;48.726;8.892;2022-11-20T15:38:44;96080.25;;;19.08;36.93
31595;BME280;18200;48.726;8.892;2022-11-20T15:42:57;96060.34;;;18.79;37.56
31595;BME280;18200;48.726;8.892;2022-11-20T15:52:24;96062.91;;;18.34;38.32
31595;BME280;18200;48.726;8.892;2022-11-20T15:56:25;96067.38;;;18.44;38.35
31595;BME280;18200;48.726;8.892;2022-11-20T16:00:26;96057.13;;;18.84;37.84
31595;BME280;18200;48.726;8.892;2022-11-20T16:04:26;96063.59;;;18.74;38.59
31595;BME280;18200;48.726;8.892;2022-11-20T16:08:27;96066.97;;;18.45;38.21
31595;BME280;18200;48.726;8.892;2022-11-20T16:12:27;96068.06;;;18.48;38.00
31595;BME280;18200;48.726;8.892;2022-11-20T16:16:46;96069.88;;;18.71;37.62
31595;BME280;18200;48.726;8.892;2022-11-20T16:20:50;96064.16;;;18.29;38.00
31595;BME280;18200;48.726;8.892;2022-11-20T16:24:51;96050.78;;;18.19;38.50
31595;BME280;18200;48.726;8.892;2022-11-20T16:28:51;96049.03;;;18.64;37.70
31595;BME280;18200;48.726;8.892;2022-11-20T16:32:52;96051.66;;;18.51;37.42
31595;BME280;18200;48.726;8.892;2022-11-20T16:36:52;96045.72;;;18.73;36.87
31595;BME280;18200;48.726;8.892;2022-11-20T16:40:52;96053.34;;;18.45;37.38
31595;BME280;18200;48.726;8.892;2022-11-20T16:44:59;96051.50;;;18.23;38.07
31595;BME280;18200;48.726;8.892;2022-11-20T16:49:04;96047.94;;;18.78;37.39
31595;BME280;18200;48.726;8.892;2022-11-20T16:53:05;96046.53;;;18.37;37.77
31595;BME280;18200;48.726;8.892;2022-11-20T16:57:06;96044.16;;;18.39;37.89
31595;BME280;18200;48.726;8.892;2022-11-20T17:01:08;96041.31;;;18.27;38.24
31595;BME280;18200;48.726;8.892;2022-11-20T17:05:09;96040.69;;;18.19;37.90
31595;BME280;18200;48.726;8.892;2022-11-20T17:09:10;96039.88;;;18.22;37.72
31595;BME280;18200;48.726;8.892;2022-11-20T17:13:10;96045.22;;;18.26;37.81
31595;BME280;18200;48.726;8.892;2022-11-20T17:17:11;96038.25;;;18.25;37.65
31595;BME280;18200;48.726;8.892;2022-11-20T17:21:12;96028.81;;;18.29;36.93
31595;BME280;18200;48.726;8.892;2022-11-20T17:25:12;96020.16;;;18.34;37.74
31595;BME280;18200;48.726;8.892;2022-11-20T17:29:17;96022.94;;;18.15;38.20
31595;BME280;18200;48.726;8.892;2022-11-20T17:33:18;96032.41;;;18.42;37.36
31595;BME280;18200;48.726;8.892;2022-11-20T17:37:19;96022.19;;;18.14;37.83
31595;BME280;18200;48.726;8.892;2022-11-20T17:41:23;96014.78;;;18.67;36.68
31595;BME280;18200;48.726;8.892;2022-11-20T17:45:24;96015.19;;;18.13;37.85
31595;BME280;18200;48.726;8.892;2022-11-20T17:49:24;96012.22;;;18.08;37.54
31595;BME280;18200;48.726;8.892;2022-11-20T17:53:25;95997.75;;;17.95;37.97
31595;BME280;18200;48.726;8.892;2022-11-20T17:57:26;95996.19;;;18.29;37.26
31595;BME280;18200;48.726;8.892;2022-11-20T18:01:45;95988.28;;;18.35;37.61
31595;BME280;18200;48.726;8.892;2022-11-20T18:05:46;95969.50;;;18.40;36.93
31595;BME280;18200;48.726;8.892;2022-11-20T18:09:46;95961.50;;;18.01;37.24
31595;BME280;18200;48.726;8.892;2022-11-20T18:13:52;95959.22;;;18.16;37.73
31595;BME280;18200;48.726;8.892;2022-11-20T18:18:12;95965.94;;;18.27;37.10
31595;BME280;18200;48.726;8.892;2022-11-20T18:22:15;95961.84;;;18.03;37.36
31595;BME280;18200;48.726;8.892;2022-11-20T18:26:17;95956.84;;;18.18;37.73
31595;BME280;18200;48.726;8.892;2022-11-20T18:30:18;95946.50;;;18.61;36.75
31595;BME280;18200;48.726;8.892;2022-11-20T18:34:19;95946.06;;;18.63;37.03
31595;BME280;18200;48.726;8.892;2022-11-20T18:38:19;95937.56;;;18.44;37.54
31595;BME280;18200;48.726;8.892;2022-11-20T18:42:20;95951.69;;;18.39;37.89
31595;BME280;18200;48.726;8.892;2022-11-20T18:46:39;95963.03;;;18.02;37.88
31595;BME280;18200;48.726;8.892;2022-11-20T18:50:40;95943.34;;;18.30;37.82
31595;BME280;18200;48.726;8.892;2022-11-20T18:54:40;95956.44;;;16.39;40.38
31595;BME280;18200;48.726;8.892;2022-11-20T18:58:41;95948.53;;;17.34;39.20
31595;BME280;18200;48.726;8.892;2022-11-20T19:02:42;95966.78;;;16.71;39.44
31595;BME280;18200;48.726;8.892;2022-11-20T19:06:44;95969.91;;;13.99;44.34
31595;BME280;18200;48.726;8.892;2022-11-20T19:10:45;95950.09;;;14.68;43.85
31595;BME280;18200;48.726;8.892;2022-11-20T19:14:45;95938.28;;;16.59;39.99
31595;BME280;18200;48.726;8.892;2022-11-20T19:18:46;95933.56;;;16.86;39.32
31595;BME280;18200;48.726;8.892;2022-11-20T19:22:50;95917.34;;;17.02;39.23
31595;BME280;18200;48.726;8.892;2022-11-20T19:26:53;95909.25;;;17.38;38.41
31595;BME280;18200;48.726;8.892;2022-11-20T19:30:55;95919.34;;;15.83;41.19
31595;BME280;18200;48.726;8.892;2022-11-20T19:34:55;95919.84;;;15.47;41.71
31595;BME280;18200;48.726;8.892;2022-11-20T19:38:56;95926.41;;;15.77;40.56
31595;BME280;18200;48.726;8.892;2022-11-20T19:42:56;95931.31;;;15.59;41.21
31595;BME280;18200;48.726;8.892;2022-11-20T19:46:57;95902.22;;;16.39;39.80
31595;BME280;18200;48.726;8.892;2022-11-20T19:50:57;95903.63;;;16.24;40.21
31595;BME280;18200;48.726;8.892;2022-11-20T19:54:58;95916.13;;;15.34;41.58
31595;BME280;18200;48.726;8.892;2022-11-20T19:58:58;95902.91;;;15.97;39.95
31595;BME280;18200;48.726;8.892;2022-11-20T20:02:59;95900.56;;;15.99;40.26
31595;BME280;18200;48.726;8.892;2022-11-20T20:07:00;95898.38;;;16.13;39.32
31595;BME280;18200;48.726;8.892;2022-11-20T20:11:17;95902.84;;;16.50;38.98
31595;BME280;18200;48.726;8.892;2022-11-20T20:15:18;95906.00;;;13.82;44.32
31595;BME280;18200;48.726;8.892;2022-11-20T20:19:18;95912.91;;;14.79;42.30
31595;BME280;18200;48.726;8.892;2022-11-20T20:23:18;95908.81;;;15.62;41.16
31595;BME280;18200;48.726;8.892;2022-11-20T20:27:19;95901.06;;;14.66;42.96
31595;BME280;18200;48.726;8.892;2022-11-20T20:31:21;95931.00;;;14.45;44.59
31595;BME280;18200;48.726;8.892;2022-11-20T20:35:22;95929.13;;;15.46;41.70
31595;BME280;18200;48.726;8.892;2022-11-20T20:39:22;95946.22;;;13.66;45.18
31595;BME280;18200;48.726;8.892;2022-11-20T20:43:23;95944.56;;;14.82;42.82
31595;BME280;18200;48.726;8.892;2022-11-20T20:47:29;95957.09;;;15.36;42.24
31595;BME280;18200;48.726;8.892;2022-11-20T20:51:29;95962.44;;;15.74;41.09
31595;BME280;18200;48.726;8.892;2022-11-20T20:55:30;95963.25;;;14.66;43.76
31595;BME280;18200;48.726;8.892;2022-11-20T20:59:32;95973.56;;;14.34;44.90
31595;BME280;18200;48.726;8.892;2022-11-20T21:03:33;95966.81;;;14.56;44.84
31595;BME280;18200;48.726;8.892;2022-11-20T21:07:33;95995.31;;;13.44;46.75
31595;BME280;18200;48.726;8.892;2022-11-20T21:11:53;95985.13;;;15.19;43.28
31595;BME280;18200;48.726;8.892;2022-11-20T21:15:54;95980.13;;;14.77;44.39
31595;BME280;18200;48.726;8.892;2022-11-20T21:19:54;95964.75;;;16.02;41.45
31595;BME280;18200;48.726;8.892;2022-11-20T21:23:55;95965.09;;;16.04;41.63
31595;BME280;18200;48.726;8.892;2022-11-20T21:27:55;95969.03;;;16.26;40.65
31595;BME280;18200;48.726;8.892;2022-11-20T21:31:56;95961.47;;;16.14;41.27
31595;BME280;18200;48.726;8.892;2022-11-20T21:35:57;95963.59;;;15.73;41.50
31595;BME280;18200;48.726;8.892;2022-11-20T21:39:57;95948.94;;;16.50;39.94
31595;BME280;18200;48.726;8.892;2022-11-20T21:43:59;95958.34;;;16.65;39.88
31595;BME280;18200;48.726;8.892;2022-11-20T21:47:59;95957.38;;;16.29;40.98
31595;BME280;18200;48.726;8.892;2022-11-20T21:52:00;95962.50;;;16.50;40.49
31595;BME280;18200;48.726;8.892;2022-11-20T21:56:01;95964.22;;;16.37;41.22
31595;BME280;18200;48.726;8.892;2022-11-20T22:00:03;95969.50;;;16.44;40.88
31595;BME280;18200;48.726;8.892;2022-11-20T22:04:14;95964.84;;;16.45;41.17
31595;BME280;18200;48.726;8.892;2022-11-20T22:08:17;95962.59;;;16.66;40.98
31595;BME280;18200;48.726;8.892;2022-11-20T22:12:17;95976.59;;;15.85;42.52
31595;BME280;18200;48.726;8.892;2022-11-20T22:16:18;95977.13;;;16.53;41.46
31595;BME280;18200;48.726;8.892;2022-11-20T22:20:18;95968.25;;;14.67;45.86
31595;BME280;18200;48.726;8.892;2022-11-20T22:24:20;95981.28;;;14.32;46.13
31595;BME280;18200;48.726;8.892;2022-11-20T22:28:20;95978.53;;;14.83;44.96
31595;BME280;18200;48.726;8.892;2022-11-20T22:32:21;95977.72;;;15.57;43.23
31595;BME280;18200;48.726;8.892;2022-11-20T22:36:23;95969.25;;;16.12;41.89
31595;BME280;18200;48.726;8.892;2022-11-20T22:40:24;95971.16;;;16.38;40.95
31595;BME280;18200;48.726;8.892;2022-11-20T22:44:24;95962.50;;;16.50;40.88
31595;BME280;18200;48.726;8.892;2022-11-20T22:48:25;95978.03;;;16.92;39.80
31595;BME280;18200;48.726;8.892;2022-11-20T22:52:25;95967.69;;;17.07;40.21
31595;BME280;18200;48.726;8.892;2022-11-20T22:56:25;95982.72;;;17.31;39.95
31595;BME280;18200;48.726;8.892;2022-11-20T23:00:26;95977.13;;;16.53;40.88
31595;BME280;18200;48.726;8.892;2022-11-20T23:04:26;95972.72;;;16.85;41.17
31595;BME280;18200;48.726;8.892;2022-11-20T23:08:27;95963.53;;;16.79;40.23
31595;BME280;18200;48.726;8.892;2022-11-20T23:12:27;95955.63;;;16.65;40.46
31595;BME280;18200;48.726;8.892;2022-11-20T23:16:29;95955.72;;;16.35;41.10
31595;BME280;18200;48.726;8.892;2022-11-20T23:20:30;95956.44;;;16.12;41.13
31595;BME280;18200;48.726;8.892;2022-11-20T23:24:30;95959.28;;;16.55;40.50
31595;BME280;18200;48.726;8.892;2022-11-20T23:28:31;95967.56;;;16.71;40.28
31595;BME280;18200;48.726;8.892;2022-11-20T23:32:31;95957.38;;;16.29;41.58
31595;BME280;18200;48.726;8.892;2022-11-20T23:36:32;95973.28;;;15.74;42.55
31595;BME280;18200;48.726;8.892;2022-11-20T23:40:33;95967.72;;;16.11;41.76
31595;BME280;18200;48.726;8.892;2022-11-20T23:44:34;95983.81;;;16.21;42.04
31595;BME280;18200;48.726;8.892;2022-11-20T23:48:35;95982.22;;;16.24;41.58